sensor_id;sensor_type;location;lat;lon;timestamp;pressure;altitude;pressure_sealevel;temperature;humidity
68199;BME280;55021;51.554;17.044;2023-04-22T00:11:11;100599.88;;;7.98;68.33
68199;BME280;55021;51.554;17.044;2023-04-22T00:26:14;100534.59;;;7.13;68.73
68199;BME280;55021;51.554;17.044;2023-04-22T00:41:17;100545.69;;;6.99;70.42
68199;BME280;55021;51.554;17.044;2023-04-22T00:56:24;100584.50;;;6.85;70.58
68199;BME280;55021;51.554;17.044;2023-04-22T01:11:27;100578.91;;;7.09;69.13
68199;BME280;55021;51.554;17.044;2023-04-22T01:26:34;100592.44;;;6.87;70.15
68199;BME280;55021;51.554;17.044;2023-04-22T01:41:37;100506.56;;;6.09;71.38
68199;BME280;55021;51.554;17.044;2023-04-22T01:56:40;100448.69;;;5.62;72.89
68199;BME280;55021;51.554;17.044;2023-04-22T02:11:43;100523.09;;;5.94;73.64
68199;BME280;55021;51.554;17.044;2023-04-22T02:26:49;100584.34;;;6.00;75.08
68199;BME280;55021;51.554;17.044;2023-04-22T02:41:51;100592.66;;;5.29;75.80
68199;BME280;55021;51.554;17.044;2023-04-22T02:57:16;100502.19;;;3.90;79.31
68199;BME280;55021;51.554;17.044;2023-04-22T05:03:58;100454.09;;;6.28;73.75
68199;BME280;55021;51.554;17.044;2023-04-22T05:19:02;100486.75;;;7.68;72.03
68199;BME280;55021;51.554;17.044;2023-04-22T05:34:23;100560.47;;;9.05;70.51
68199;BME280;55021;51.554;17.044;2023-04-22T05:49:36;100486.91;;;9.03;72.60
68199;BME280;55021;51.554;17.044;2023-04-22T06:04:53;100485.69;;;10.80;66.61
68199;BME280;55021;51.554;17.044;2023-04-22T06:19:58;100530.59;;;12.95;61.68
68199;BME280;55021;51.554;17.044;2023-04-22T06:35:13;100500.34;;;13.95;58.17
68199;BME280;55021;51.554;17.044;2023-04-22T06:50:35;100526.47;;;14.51;57.22
68199;BME280;55021;51.554;17.044;2023-04-22T07:05:52;100481.72;;;14.62;54.38
68199;BME280;55021;51.554;17.044;2023-04-22T07:20:54;100486.56;;;15.71;52.19
68199;BME280;55021;51.554;17.044;2023-04-22T07:36:15;100479.34;;;16.37;49.36
68199;BME280;55021;51.554;17.044;2023-04-22T07:51:18;100494.69;;;16.53;50.84
68199;BME280;55021;51.554;17.044;2023-04-22T08:06:27;100499.09;;;18.49;42.65
68199;BME280;55021;51.554;17.044;2023-04-22T08:37:13;100484.09;;;20.81;35.85
68199;BME280;55021;51.554;17.044;2023-04-22T08:52:16;100484.78;;;20.64;31.93
68199;BME280;55021;51.554;17.044;2023-04-22T09:07:22;100400.94;;;21.11;27.80
68199;BME280;55021;51.554;17.044;2023-04-22T09:22:25;100401.16;;;21.09;28.93
68199;BME280;55021;51.554;17.044;2023-04-22T09:37:28;100421.94;;;21.30;31.53
68199;BME280;55021;51.554;17.044;2023-04-22T09:52:32;100357.22;;;21.21;27.51
68199;BME280;55021;51.554;17.044;2023-04-22T10:07:35;100336.47;;;21.25;28.86
68199;BME280;55021;51.554;17.044;2023-04-22T10:22:39;100354.03;;;20.74;28.93
68199;BME280;55021;51.554;17.044;2023-04-22T10:37:43;100399.75;;;21.74;30.69
68199;BME280;55021;51.554;17.044;2023-04-22T10:52:49;100385.66;;;22.66;30.76
68199;BME280;55021;51.554;17.044;2023-04-22T11:07:53;100382.69;;;23.09;31.59
68199;BME280;55021;51.554;17.044;2023-04-22T11:22:56;100361.50;;;22.92;27.62
68199;BME280;55021;51.554;17.044;2023-04-22T11:38:00;100316.28;;;22.81;28.09
68199;BME280;55021;51.554;17.044;2023-04-22T11:53:27;100285.59;;;21.70;29.19
68199;BME280;55021;51.554;17.044;2023-04-22T12:08:31;100308.94;;;22.75;29.79
68199;BME280;55021;51.554;17.044;2023-04-22T12:23:41;100271.28;;;23.50;27.26
68199;BME280;55021;51.554;17.044;2023-04-22T12:38:43;100286.34;;;23.19;28.52
68199;BME280;55021;51.554;17.044;2023-04-22T12:53:46;100293.13;;;23.75;28.18
68199;BME280;55021;51.554;17.044;2023-04-22T13:08:54;100279.81;;;23.72;28.88
68199;BME280;55021;51.554;17.044;2023-04-22T13:23:57;100213.94;;;23.29;26.35
68199;BME280;55021;51.554;17.044;2023-04-22T13:39:25;100234.16;;;22.95;28.27
68199;BME280;55021;51.554;17.044;2023-04-22T13:54:28;100235.84;;;23.70;25.46
68199;BME280;55021;51.554;17.044;2023-04-22T14:09:31;100151.44;;;22.30;28.08
68199;BME280;55021;51.554;17.044;2023-04-22T14:24:49;100182.25;;;23.31;26.36
68199;BME280;55021;51.554;17.044;2023-04-22T14:39:52;100227.06;;;23.22;29.97
68199;BME280;55021;51.554;17.044;2023-04-22T14:54:55;100219.69;;;22.93;30.65
68199;BME280;55021;51.554;17.044;2023-04-22T15:09:58;100216.00;;;22.76;26.49
68199;BME280;55021;51.554;17.044;2023-04-22T15:25:01;100203.16;;;22.69;28.30
68199;BME280;55021;51.554;17.044;2023-04-22T15:40:20;100142.53;;;21.75;28.89
68199;BME280;55021;51.554;17.044;2023-04-22T15:55:46;100195.88;;;22.22;30.63
68199;BME280;55021;51.554;17.044;2023-04-22T16:10:48;100174.88;;;22.09;31.79
68199;BME280;55021;51.554;17.044;2023-04-22T16:25:51;100157.47;;;21.38;34.54
68199;BME280;55021;51.554;17.044;2023-04-22T16:41:00;100148.66;;;20.93;35.58
68199;BME280;55021;51.554;17.044;2023-04-22T16:56:17;100147.63;;;20.45;35.47
68199;BME280;55021;51.554;17.044;2023-04-22T17:27:17;100116.06;;;19.42;36.03
68199;BME280;55021;51.554;17.044;2023-04-22T17:42:24;100038.69;;;18.12;39.81
68199;BME280;55021;51.554;17.044;2023-04-22T18:13:06;100118.69;;;16.66;44.12
68199;BME280;55021;51.554;17.044;2023-04-22T18:28:09;100146.91;;;16.18;43.78
68199;BME280;55021;51.554;17.044;2023-04-22T18:43:12;100153.56;;;14.80;49.54
68199;BME280;55021;51.554;17.044;2023-04-22T18:58:15;100159.09;;;14.72;49.30
68199;BME280;55021;51.554;17.044;2023-04-22T19:13:18;100165.38;;;14.06;51.80
68199;BME280;55021;51.554;17.044;2023-04-22T19:28:29;100157.66;;;13.72;50.87
68199;BME280;55021;51.554;17.044;2023-04-22T19:43:34;100107.59;;;13.13;52.71
68199;BME280;55021;51.554;17.044;2023-04-22T19:58:37;100146.56;;;12.90;57.47
68199;BME280;55021;51.554;17.044;2023-04-22T20:13:40;100162.53;;;12.85;58.25
68199;BME280;55021;51.554;17.044;2023-04-22T20:28:44;100140.50;;;12.16;61.56
68199;BME280;55021;51.554;17.044;2023-04-22T20:43:47;100145.75;;;11.61;62.56
68199;BME280;55021;51.554;17.044;2023-04-22T20:58:50;100102.38;;;11.29;61.03
68199;BME280;55021;51.554;17.044;2023-04-22T21:13:53;100114.34;;;11.03;63.13
68199;BME280;55021;51.554;17.044;2023-04-22T21:28:57;100134.72;;;10.73;65.65
68199;BME280;55021;51.554;17.044;2023-04-22T21:44:00;100142.72;;;10.90;63.12
68199;BME280;55021;51.554;17.044;2023-04-22T21:59:02;100127.00;;;10.86;61.44
68199;BME280;55021;51.554;17.044;2023-04-22T22:14:04;100097.47;;;10.33;63.30
68199;BME280;55021;51.554;17.044;2023-04-22T22:29:09;100052.66;;;9.89;64.00
68199;BME280;55021;51.554;17.044;2023-04-22T22:44:12;100099.22;;;9.82;66.37
68199;BME280;55021;51.554;17.044;2023-04-22T22:59:15;100095.34;;;9.06;68.60
68199;BME280;55021;51.554;17.044;2023-04-22T23:14:18;100015.19;;;9.42;65.46
68199;BME280;55021;51.554;17.044;2023-04-22T23:29:21;100004.69;;;9.65;63.54
68199;BME280;55021;51.554;17.044;2023-04-22T23:44:24;99987.94;;;9.53;64.48
68199;BME280;55021;51.554;17.044;2023-04-22T23:59:27;100068.25;;;10.36;62.65
